Погода Гельбахна 2 недели

Республика Дагестан, Россия

15 - 28 июля
  • 15июля
    Сегодня
    +21°
    +34°
    Ясно и безоблачно
    ВремяПогодаТемператураВлажностьДавлениеВетер, м/сВероятность осадков
    00:00Ясно и безоблачно+21°C35 %749 мм1.9 м/с2 %
    03:00Ясно и безоблачно+20°C35 %748 мм1.0 м/с2 %
    06:00Ясно и безоблачно+24°C34 %748 мм0.8 м/с2 %
    09:00Ясно и безоблачно+30°C22 %749 мм1.8 м/с2 %
    12:00Ясно и безоблачно+33°C22 %748 мм3.3 м/с2 %
    15:00Ясно и безоблачно+33°C25 %748 мм4.7 м/с2 %
    18:00Ясно и безоблачно+30°C31 %748 мм4.4 м/с2 %
    21:00Ясно и безоблачно+25°C41 %748 мм2.7 м/с2 %
  • 16июля
    Вторник
    +22°
    +34°
    Небольшая облачность
    ВремяПогодаТемператураВлажностьДавлениеВетер, м/сВероятность осадков
    00:00Ясно и безоблачно+23°C52 %748 мм1.0 м/с2 %
    03:00Ясно и безоблачно+23°C50 %748 мм1.5 м/с2 %
    06:00Ясно и безоблачно+25°C52 %748 мм0.8 м/с2 %
    09:00Ясно и безоблачно+31°C29 %749 мм3.5 м/с2 %
    12:00Ясно и безоблачно+34°C26 %748 мм4.6 м/с2 %
    15:00Небольшая облачность+34°C30 %748 мм5.2 м/с2 %
    18:00Ясно и безоблачно+30°C36 %749 мм3.5 м/с2 %
    21:00Ясно и безоблачно+25°C53 %749 мм1.6 м/с2 %
  • 17июля
    Среда
    +22°
    +35°
    Ясно и безоблачно
    ВремяПогодаТемператураВлажностьДавлениеВетер, м/сВероятность осадков
    00:00Ясно и безоблачно+23°C59 %748 мм1.1 м/с2 %
    03:00Ясно и безоблачно+24°C49 %748 мм1.5 м/с2 %
    06:00Ясно и безоблачно+26°C46 %749 мм1.1 м/с2 %
    09:00Ясно и безоблачно+32°C30 %750 мм3.6 м/с2 %
    12:00Ясно и безоблачно+34°C27 %749 мм4.0 м/с5 %
    15:00Ясно и безоблачно+34°C28 %749 мм4.8 м/с13 %
    18:00Практически безоблачно+31°C36 %749 мм4.4 м/с8 %
    21:00Ясно и безоблачно+25°C62 %750 мм2.1 м/с2 %
  • 18июля
    Четверг
    +23°
    +34°
    Практически безоблачно
    ВремяПогодаТемператураВлажностьДавлениеВетер, м/сВероятность осадков
    00:00Облачно с прояснениями+23°C62 %749 мм1.4 м/с2 %
    03:00Облачно с прояснениями+23°C57 %749 мм1.2 м/с2 %
    06:00Практически безоблачно+26°C47 %749 мм1.0 м/с3 %
    09:00Практически безоблачно+31°C32 %750 мм3.3 м/с3 %
    12:00Практически безоблачно+33°C26 %749 мм3.3 м/с9 %
    15:00Практически безоблачно+34°C27 %748 мм3.0 м/с8 %
    18:00Ясно и безоблачно+29°C45 %748 мм4.9 м/с7 %
    21:00Ясно и безоблачно+25°C54 %748 мм2.8 м/с2 %
  • 19июля
    Пятница
    +22°
    +35°
    Ясно и безоблачно
    ВремяПогодаТемператураВлажностьДавлениеВетер, м/сВероятность осадков
    00:00Ясно и безоблачно+24°C58 %748 мм1.1 м/с2 %
    03:00Ясно и безоблачно+23°C58 %747 мм1.1 м/с2 %
    06:00Ясно и безоблачно+25°C47 %747 мм1.0 м/с2 %
    09:00Ясно и безоблачно+32°C22 %747 мм2.5 м/с2 %
    12:00Ясно и безоблачно+35°C18 %747 мм3.7 м/с3 %
    15:00Ясно и безоблачно+36°C16 %746 мм4.6 м/с4 %
    18:00Ясно и безоблачно+33°C23 %746 мм4.5 м/с3 %
    21:00Ясно и безоблачно+27°C31 %746 мм2.9 м/с2 %
Мы используем cookies
Соглашаюсь